• Join FlightAware (Why Join?)
  • Login
  • US Flag 
05:34AM EST


 

Airport Tracker/Info


-or-


 

Live Flight TrackerFlight Track Log ✈ ASQ5740 ✈ 13-Nov-2013 ✈ KIAD - KGSP

Flight Track Log - Related Links

Times and Time Zones

All times are in EST time to prevent confusion due to time zone crossing. See the ASQ5740 flight status page for this flight to view local times or setup timezone preferences in your user account.

Time Position Orientation Groundspeed Altitude Reporting Facility
EST Latitude Longitude Course Direction KTS MPH feet Rate Location/Type
01:06PM 38.9333 -77.5333 230° Southwest 215 247 2,800  Level Potomac TRACON
01:07PM 38.8833 -77.6000 226° Southwest 275 316 6,300 3,000 Climbing Potomac TRACON
01:08PM 38.8000 -77.6000 180° South 310 357 8,800 2,040 Climbing Potomac TRACON
01:09PM 38.6382 -77.8502 226° Southwest  Level Estimated
01:09PM 38.7000 -77.5833 173° South 337 388 10,500  Level Potomac TRACON
01:10PM 38.5607 -77.9472 233° Southwest  Level Estimated
01:11PM 38.4832 -78.0440 230° Southwest  Level Estimated
01:11PM 38.5300 -77.5769 178° South 375 432 13,200  Level Washington Center
01:12PM 38.4133 -77.5764 180° South 401 461 14,900 900 Climbing Washington Center
01:13PM 38.3261 -77.6747 222° Southwest 382 440 15,000 600 Climbing Washington Center
01:14PM 38.2511 -77.7917 231° Southwest 407 468 16,100 1,500 Climbing Washington Center
01:15PM 38.1947 -77.9142 240° Southwest 407 468 18,100 1,680 Climbing Washington Center
01:16PM 38.1439 -78.0444 244° Southwest 412 474 19,600 1,740 Climbing Washington Center
01:17PM 38.0956 -78.1722 244° Southwest 407 468 21,600 2,040 Climbing Washington Center
01:18PM 38.0511 -78.2919 245° Southwest 397 457 23,700 1,620 Climbing Washington Center
01:19PM 38.0114 -78.3933 244° Southwest 397 457 24,900 1,440 Climbing Washington Center
01:20PM 37.9456 -78.5278 238° Southwest 392 451 26,700 1,020 Climbing Washington Center
01:21PM 37.8578 -78.6217 220° Southwest 399 459 27,000 600 Climbing Washington Center
01:22PM 37.7633 -78.7178 219° Southwest 421 484 28,000 480 Climbing Washington Center
01:23PM 37.6669 -78.8186 220° Southwest 436 502 28,000  Level Washington Center
01:24PM 37.5725 -78.9144 219° Southwest 447 514 28,000  Level Washington Center
01:25PM 37.4781 -79.0122 219° Southwest 447 514 28,000  Level Washington Center
01:26PM 37.3964 -79.0922 218° Southwest 442 509 28,000  Level Washington Center
01:27PM 37.3103 -79.1797 219° Southwest 422 486 28,000  Level Washington Center
01:28PM 37.2283 -79.2725 222° Southwest 410 472 28,000  Level Washington Center
01:29PM 37.1583 -79.3758 230° Southwest 396 456 28,000  Level Washington Center
01:30PM 37.0925 -79.4767 231° Southwest 391 450 28,000  Level Washington Center
01:31PM 37.0244 -79.5775 230° Southwest 385 443 28,000  Level Washington Center
01:32PM 36.9564 -79.6778 230° Southwest 385 443 28,000  Level Washington Center
01:33PM 36.8794 -79.7906 230° Southwest 390 449 28,000  Level Washington Center
01:34PM 36.8111 -79.8908 230° Southwest 390 449 28,000  Level Washington Center
01:35PM 36.7408 -79.9906 229° Southwest 390 449 28,000  Level Washington Center
01:36PM 36.6425 -80.1319 229° Southwest 387 445 28,000  Level Atlanta Center
01:37PM 36.5808 -80.2231 230° Southwest 387 445 28,000 -60 Level Atlanta Center
01:38PM 36.4933 -80.2969 214° Southwest 386 444 27,900 -420 Descending Atlanta Center
01:39PM 36.3842 -80.3356 196° South 386 444 27,200 -720 Descending Atlanta Center
01:40PM 36.2664 -80.3717 194° South 407 468 26,500 -780 Descending Atlanta Center
01:41PM 36.1447 -80.4183 197° South 421 484 25,700 -780 Descending Atlanta Center
01:42PM 36.0372 -80.4542 195° South 416 479 25,000 -720 Descending Atlanta Center
01:43PM 35.9319 -80.4894 195° South 409 471 24,300 -900 Descending Atlanta Center
01:44PM 35.8264 -80.5247 195° South 404 465 23,300 -1,020 Descending Atlanta Center
01:45PM 35.7342 -80.5775 205° Southwest 386 444 22,300 -900 Descending Atlanta Center
01:46PM 35.6928 -80.6636 239° Southwest 351 404 21,500 -1,080 Descending Atlanta Center
01:47PM 35.6433 -80.7703 240° Southwest 345 397 20,400 -1,200 Descending Atlanta Center
01:47PM 35.6372 -80.7706 182° South 348 400 20,300 -1,380 Descending Atlanta Center
01:47PM 35.6156 -80.8200 242° Southwest 346 398 19,700 -1,440 Descending Atlanta Center
01:48PM 35.5897 -80.8694 237° Southwest 353 406 18,900 -1,500 Descending Atlanta Center
01:48PM 35.5681 -80.9164 240° Southwest 333 383 18,200 -1,020 Descending Atlanta Center
01:49PM 35.5381 -80.9658 233° Southwest 343 395 17,900 -1,020 Descending Atlanta Center
01:49PM 35.5203 -81.0075 242° Southwest 314 361 17,200 -1,920 Descending Atlanta Center
01:50PM 35.4881 -81.0569 231° Southwest 324 373 16,000 -1,920 Descending Atlanta Center
01:51PM 35.4683 -81.1089 245° Southwest 309 356 15,100 -1,800 Descending Atlanta Center
01:51PM 35.4422 -81.1481 231° Southwest 318 366 14,200 -1,800 Descending Atlanta Center
01:52PM 35.4203 -81.1972 241° Southwest 311 358 13,300 -1,200 Descending Atlanta Center
01:52PM 35.3964 -81.2439 238° Southwest 323 372 13,000 -360 Descending Atlanta Center
01:52PM 35.3783 -81.2775 237° Southwest 303 349 13,000 60 Level Atlanta Center
01:53PM 35.3525 -81.3294 239° Southwest 323 372 13,100  Climbing Atlanta Center
01:53PM 35.3344 -81.3606 235° Southwest 294 338 13,000 -600 Descending Atlanta Center
01:54PM 35.3042 -81.4097 233° Southwest 311 358 12,500 -1,140 Descending Atlanta Center
01:55PM 35.2803 -81.4642 242° Southwest 305 351 11,800 -1,140 Descending Atlanta Center
01:55PM 35.2600 -81.5003 235° Southwest 311 358 11,400 -1,080 Descending Atlanta Center
01:56PM 35.2056 -81.5808 230° Southwest 311 358 10,200 -1,200 Descending Atlanta Center
01:58PM 35.1279 -81.7275 239° Southwest  Level FlightAware Approximate
02:05PM 34.8833 -82.2167 231° Southwest  Level FlightAware Approximate
02:06PM 34.8957 -82.2189 231° Southwest  Level Estimated
02:07PM 34.8957 -82.2189 231° Southwest  Level Estimated
02:08PM 34.8957 -82.2189 231° Southwest  Level Estimated
02:09PM 34.8957 -82.2189 231° Southwest  Level Estimated
02:10PM 34.8957 -82.2189 231° Southwest  Level Estimated